LFST/SXB METAR and TAF weather

Enter ICAO airport designator
Station Type Date Time Source
LFST METAR 2019/04/22 18:00 UTC NOAA

LFST 221800Z AUTO 05007KT CAVOK 23/02 Q1001 NOSIG


Station Type Date Time Source
LFST Decoded METAR 2019/04/22 18:00 UTC NOAA

Strasbourg, France (LFST) 48-33N 007-38E 154M
Apr 22, 2019 - 02:00 PM EDT / 2019.04.22 1800 UTC
Wind: from the NE (050 degrees) at 8 MPH (7 KT):0
Visibility: greater than 7 mile(s):0
Temperature: 73 F (23 C)
Dew Point: 35 F (2 C)
Relative Humidity: 25%
Pressure (altimeter): 29.56 in. Hg (1001 hPa)
ob: LFST 221800Z AUTO 05007KT CAVOK 23/02 Q1001 NOSIG
cycle: 18

Station Type Date Time Source
LFST TAF 2019/04/22 18:21 UTC NOAA

TAF LFST 221700Z 2218/2318 04008KT CAVOK
BECMG 2312/2313 18005KT
TEMPO 2315/2318 FEW090TCU

Example: see airport list